GIA111 WIII-OEJN
Flight info
| Callsign | GIA111 |
|---|---|
| Flight time | N/A |
| Altitude | 32000 |
| Route | RIMTI M766 OBMAT/N0498F340 M766 KAT/N0492F360 P570 TVM UL425 ASPUX L425 BOVOS/N0485F380 L425 GOBRO DCT AMBIT L425 BOSUT |
| Aircraft | B744/H-SDE3FGHIM1M2RWXY/LB1 |
Departure
| Time | N/A |
|---|---|
| Airport | Soekarno-Hatta International Airport (WIII) |
Arrival
| Time | 2026-05-07 08:44 |
|---|---|
| Airport | King Abdulaziz International Airport (OEJN) |
| Time | Latitude | Longitude | Altitude | Speed | Heading |
|---|---|---|---|---|---|
| 2026-05-07 08:05 | 20.00846 | 42.76740 | 31997 ft | 502 kts | 258° |
| 2026-05-07 08:06 | 20.00084 | 42.73176 | 31997 ft | 502 kts | 258° |
| 2026-05-07 08:06 | 19.98530 | 42.65882 | 31995 ft | 502 kts | 259° |
| 2026-05-07 08:07 | 19.98344 | 42.58489 | 31998 ft | 502 kts | 274° |
| 2026-05-07 08:07 | 19.99132 | 42.51119 | 31997 ft | 502 kts | 277° |
| 2026-05-07 08:08 | 20.00127 | 42.43774 | 31997 ft | 502 kts | 277° |
| 2026-05-07 08:08 | 20.01072 | 42.36464 | 31997 ft | 502 kts | 277° |
| 2026-05-07 08:09 | 20.02001 | 42.29103 | 31997 ft | 502 kts | 277° |
| 2026-05-07 08:09 | 20.02941 | 42.21748 | 31997 ft | 502 kts | 277° |
| 2026-05-07 08:10 | 20.03878 | 42.14388 | 31997 ft | 502 kts | 277° |
| 2026-05-07 08:10 | 20.04801 | 42.07038 | 31997 ft | 502 kts | 277° |
| 2026-05-07 08:11 | 20.05720 | 41.99674 | 31997 ft | 502 kts | 277° |
| 2026-05-07 08:11 | 20.06633 | 41.92311 | 31997 ft | 502 kts | 277° |
| 2026-05-07 08:12 | 20.07543 | 41.84954 | 31997 ft | 502 kts | 277° |
| 2026-05-07 08:12 | 20.08451 | 41.77586 | 31997 ft | 502 kts | 277° |
| 2026-05-07 08:13 | 20.09348 | 41.70273 | 31997 ft | 502 kts | 277° |
| 2026-05-07 08:13 | 20.10249 | 41.62912 | 31997 ft | 502 kts | 277° |
| 2026-05-07 08:14 | 20.11153 | 41.55495 | 31997 ft | 502 kts | 277° |
| 2026-05-07 08:14 | 20.12047 | 41.48136 | 31997 ft | 502 kts | 277° |
| 2026-05-07 08:15 | 20.12932 | 41.40821 | 31997 ft | 502 kts | 277° |
| 2026-05-07 08:15 | 20.13827 | 41.33403 | 31997 ft | 502 kts | 277° |
| 2026-05-07 08:16 | 20.14706 | 41.26084 | 31997 ft | 502 kts | 277° |
| 2026-05-07 08:16 | 20.15589 | 41.18715 | 31997 ft | 502 kts | 277° |
| 2026-05-07 08:17 | 20.16468 | 41.11345 | 31997 ft | 502 kts | 277° |
| 2026-05-07 08:17 | 20.17345 | 41.03968 | 31997 ft | 502 kts | 277° |
| 2026-05-07 08:18 | 20.18234 | 40.96602 | 31997 ft | 502 kts | 277° |
| 2026-05-07 08:18 | 20.19104 | 40.89224 | 31997 ft | 502 kts | 277° |
| 2026-05-07 08:19 | 20.19966 | 40.81845 | 31997 ft | 502 kts | 277° |
| 2026-05-07 08:19 | 20.20824 | 40.74466 | 31997 ft | 502 kts | 277° |
| 2026-05-07 08:20 | 20.22253 | 40.67216 | 31998 ft | 503 kts | 289° |
| 2026-05-07 08:20 | 20.25158 | 40.60431 | 31997 ft | 504 kts | 296° |
| 2026-05-07 08:21 | 20.28544 | 40.53890 | 31997 ft | 505 kts | 297° |
| 2026-05-07 08:21 | 20.31811 | 40.47443 | 31983 ft | 483 kts | 297° |
| 2026-05-07 08:21 | 20.33365 | 40.44333 | 31732 ft | 469 kts | 296° |
| 2026-05-07 08:22 | 20.34882 | 40.41292 | 31124 ft | 463 kts | 296° |
| 2026-05-07 08:22 | 20.36307 | 40.38433 | 30052 ft | 464 kts | 296° |
| 2026-05-07 08:22 | 20.37816 | 40.35403 | 29018 ft | 462 kts | 296° |
| 2026-05-07 08:22 | 20.39309 | 40.32405 | 28411 ft | 452 kts | 296° |
| 2026-05-07 08:23 | 20.40806 | 40.29401 | 27712 ft | 469 kts | 296° |
| 2026-05-07 08:23 | 20.42359 | 40.26277 | 26995 ft | 484 kts | 296° |
| 2026-05-07 08:23 | 20.43933 | 40.23120 | 26510 ft | 476 kts | 296° |
| 2026-05-07 08:23 | 20.45472 | 40.20028 | 26385 ft | 471 kts | 296° |
| 2026-05-07 08:24 | 20.46995 | 40.16964 | 26265 ft | 466 kts | 296° |
| 2026-05-07 08:24 | 20.48512 | 40.13907 | 26162 ft | 465 kts | 296° |
| 2026-05-07 08:24 | 20.50025 | 40.10859 | 26096 ft | 465 kts | 296° |
| 2026-05-07 08:24 | 20.51541 | 40.07802 | 26032 ft | 465 kts | 296° |
| 2026-05-07 08:25 | 20.53051 | 40.04756 | 25986 ft | 463 kts | 296° |
| 2026-05-07 08:25 | 20.54542 | 40.01745 | 25531 ft | 455 kts | 296° |
| 2026-05-07 08:25 | 20.56012 | 39.98777 | 24784 ft | 448 kts | 296° |
| 2026-05-07 08:25 | 20.57457 | 39.95859 | 23933 ft | 441 kts | 296° |
| 2026-05-07 08:26 | 20.60281 | 39.90195 | 22215 ft | 429 kts | 296° |
| 2026-05-07 08:26 | 20.61672 | 39.87396 | 21360 ft | 424 kts | 296° |
| 2026-05-07 08:26 | 20.63042 | 39.84632 | 20510 ft | 418 kts | 296° |
| 2026-05-07 08:27 | 20.64403 | 39.81904 | 19666 ft | 413 kts | 296° |
| 2026-05-07 08:27 | 20.65738 | 39.79217 | 18820 ft | 408 kts | 296° |
| 2026-05-07 08:27 | 20.67056 | 39.76553 | 17980 ft | 403 kts | 296° |
| 2026-05-07 08:27 | 20.68352 | 39.73928 | 17141 ft | 398 kts | 296° |
| 2026-05-07 08:28 | 20.69637 | 39.71320 | 16309 ft | 393 kts | 296° |
| 2026-05-07 08:28 | 20.70902 | 39.68751 | 15488 ft | 389 kts | 296° |
| 2026-05-07 08:28 | 20.72151 | 39.66212 | 14671 ft | 384 kts | 296° |
| 2026-05-07 08:28 | 20.73391 | 39.63692 | 13860 ft | 380 kts | 296° |
| 2026-05-07 08:29 | 20.74611 | 39.61210 | 13072 ft | 376 kts | 297° |
| 2026-05-07 08:29 | 20.75813 | 39.58768 | 12290 ft | 371 kts | 296° |
| 2026-05-07 08:29 | 20.77017 | 39.56380 | 11499 ft | 369 kts | 300° |
| 2026-05-07 08:29 | 20.78731 | 39.54351 | 10696 ft | 369 kts | 319° |
| 2026-05-07 08:30 | 20.80952 | 39.52974 | 9841 ft | 370 kts | 332° |
| 2026-05-07 08:30 | 20.83342 | 39.51967 | 9078 ft | 368 kts | 338° |
| 2026-05-07 08:30 | 20.85759 | 39.51203 | 8619 ft | 355 kts | 342° |
| 2026-05-07 08:30 | 20.88094 | 39.50609 | 8504 ft | 334 kts | 344° |
| 2026-05-07 08:31 | 20.90289 | 39.50068 | 8386 ft | 313 kts | 343° |
| 2026-05-07 08:31 | 20.92346 | 39.49527 | 8196 ft | 297 kts | 343° |
| 2026-05-07 08:31 | 20.94301 | 39.48997 | 8079 ft | 289 kts | 342° |
| 2026-05-07 08:31 | 20.96229 | 39.48472 | 8015 ft | 282 kts | 342° |
| 2026-05-07 08:32 | 20.98096 | 39.47963 | 7984 ft | 277 kts | 341° |
| 2026-05-07 08:32 | 20.99976 | 39.47452 | 7699 ft | 273 kts | 342° |
| 2026-05-07 08:32 | 21.01817 | 39.46957 | 7337 ft | 272 kts | 342° |
| 2026-05-07 08:32 | 21.03621 | 39.46470 | 6981 ft | 271 kts | 342° |
| 2026-05-07 08:33 | 21.05443 | 39.45978 | 6623 ft | 269 kts | 342° |
| 2026-05-07 08:33 | 21.07250 | 39.45489 | 6316 ft | 266 kts | 342° |
| 2026-05-07 08:33 | 21.09014 | 39.45011 | 5996 ft | 263 kts | 342° |
| 2026-05-07 08:33 | 21.10805 | 39.44526 | 5638 ft | 262 kts | 343° |
| 2026-05-07 08:34 | 21.12566 | 39.44048 | 5280 ft | 261 kts | 344° |
| 2026-05-07 08:34 | 21.14314 | 39.43575 | 5104 ft | 259 kts | 344° |
| 2026-05-07 08:34 | 21.16071 | 39.43099 | 5031 ft | 260 kts | 345° |
| 2026-05-07 08:34 | 21.17818 | 39.42625 | 4744 ft | 259 kts | 345° |
| 2026-05-07 08:35 | 21.19574 | 39.42150 | 4319 ft | 261 kts | 345° |
| 2026-05-07 08:35 | 21.21331 | 39.41661 | 4134 ft | 261 kts | 342° |
| 2026-05-07 08:35 | 21.22956 | 39.40789 | 4062 ft | 263 kts | 327° |
| 2026-05-07 08:35 | 21.24400 | 39.39582 | 4007 ft | 264 kts | 320° |
| 2026-05-07 08:36 | 21.25729 | 39.38228 | 3999 ft | 263 kts | 315° |
| 2026-05-07 08:36 | 21.27003 | 39.36819 | 4004 ft | 263 kts | 315° |
| 2026-05-07 08:36 | 21.28288 | 39.35430 | 4003 ft | 262 kts | 315° |
| 2026-05-07 08:36 | 21.29571 | 39.34082 | 4002 ft | 260 kts | 316° |
| 2026-05-07 08:37 | 21.30859 | 39.32746 | 4001 ft | 255 kts | 318° |
| 2026-05-07 08:37 | 21.32311 | 39.31657 | 4022 ft | 257 kts | 330° |
| 2026-05-07 08:37 | 21.33922 | 39.30832 | 3902 ft | 255 kts | 337° |
| 2026-05-07 08:37 | 21.35586 | 39.30170 | 3536 ft | 255 kts | 340° |
| 2026-05-07 08:38 | 21.37263 | 39.29556 | 3221 ft | 253 kts | 341° |
| 2026-05-07 08:38 | 21.38906 | 39.28939 | 3064 ft | 246 kts | 340° |
| 2026-05-07 08:38 | 21.40510 | 39.28330 | 3010 ft | 243 kts | 340° |
| 2026-05-07 08:38 | 21.42086 | 39.27725 | 3002 ft | 240 kts | 340° |
| 2026-05-07 08:39 | 21.43516 | 39.27156 | 3003 ft | 239 kts | 339° |
| 2026-05-07 08:39 | 21.45060 | 39.26541 | 3002 ft | 230 kts | 340° |
| 2026-05-07 08:39 | 21.46503 | 39.25970 | 2997 ft | 211 kts | 340° |
| 2026-05-07 08:39 | 21.47832 | 39.25446 | 2997 ft | 199 kts | 340° |
| 2026-05-07 08:40 | 21.49123 | 39.24937 | 2994 ft | 197 kts | 340° |
| 2026-05-07 08:40 | 21.50409 | 39.24431 | 2991 ft | 197 kts | 340° |
| 2026-05-07 08:40 | 21.51699 | 39.23924 | 3007 ft | 199 kts | 340° |
| 2026-05-07 08:40 | 21.53008 | 39.23409 | 2868 ft | 201 kts | 340° |
| 2026-05-07 08:41 | 21.54301 | 39.22900 | 2594 ft | 195 kts | 340° |
| 2026-05-07 08:41 | 21.55530 | 39.22416 | 2355 ft | 182 kts | 340° |
| 2026-05-07 08:41 | 21.56688 | 39.21960 | 2121 ft | 171 kts | 340° |
| 2026-05-07 08:41 | 21.57784 | 39.21529 | 1892 ft | 165 kts | 340° |
| 2026-05-07 08:42 | 21.58835 | 39.21115 | 1699 ft | 158 kts | 340° |
| 2026-05-07 08:42 | 21.59857 | 39.20712 | 1478 ft | 155 kts | 340° |
| 2026-05-07 08:42 | 21.60847 | 39.20322 | 1255 ft | 152 kts | 340° |
| 2026-05-07 08:42 | 21.61827 | 39.19936 | 1050 ft | 149 kts | 340° |
| 2026-05-07 08:43 | 21.62803 | 39.19552 | 855 ft | 149 kts | 340° |
| 2026-05-07 08:43 | 21.63778 | 39.19167 | 658 ft | 149 kts | 340° |
| 2026-05-07 08:43 | 21.64752 | 39.18784 | 460 ft | 149 kts | 340° |
| 2026-05-07 08:43 | 21.65723 | 39.18399 | 262 ft | 148 kts | 340° |
| 2026-05-07 08:44 | 21.66688 | 39.18018 | 97 ft | 147 kts | 340° |
| 2026-05-07 08:44 | 21.67547 | 39.17674 | 63 ft | 93 kts | 342° |
| 2026-05-07 08:44 | 21.67895 | 39.17539 | 62 ft | 33 kts | 326° |
| 2026-05-07 08:44 | 21.68033 | 39.17411 | 62 ft | 17 kts | 308° |
| 2026-05-07 08:45 | 21.68092 | 39.17337 | 62 ft | 9 kts | 310° |
| 2026-05-07 08:45 | 21.68128 | 39.17291 | 62 ft | 5 kts | 310° |
| 2026-05-07 08:45 | 21.68132 | 39.17286 | 62 ft | 0 kts | 310° |
| 2026-05-07 08:47 | 21.68132 | 39.17285 | 62 ft | 0 kts | 310° |
| 2026-05-07 08:47 | 21.68150 | 39.17260 | 62 ft | 8 kts | 294° |
| 2026-05-07 08:48 | 21.68102 | 39.17229 | 62 ft | 14 kts | 172° |
| 2026-05-07 08:48 | 21.68004 | 39.17263 | 62 ft | 15 kts | 159° |
| 2026-05-07 08:48 | 21.67894 | 39.17307 | 62 ft | 21 kts | 160° |
| 2026-05-07 08:48 | 21.67754 | 39.17363 | 62 ft | 22 kts | 160° |
| 2026-05-07 08:49 | 21.67598 | 39.17424 | 62 ft | 23 kts | 160° |
| 2026-05-07 08:49 | 21.67435 | 39.17488 | 62 ft | 26 kts | 160° |
| 2026-05-07 08:49 | 21.67302 | 39.17542 | 62 ft | 14 kts | 158° |
| 2026-05-07 08:49 | 21.67205 | 39.17579 | 62 ft | 17 kts | 160° |
| 2026-05-07 08:50 | 21.67079 | 39.17629 | 62 ft | 19 kts | 160° |
| 2026-05-07 08:50 | 21.66989 | 39.17651 | 62 ft | 10 kts | 213° |
| 2026-05-07 08:50 | 21.66951 | 39.17563 | 62 ft | 16 kts | 249° |
| 2026-05-07 08:50 | 21.66915 | 39.17459 | 62 ft | 14 kts | 249° |
| 2026-05-07 08:51 | 21.66887 | 39.17376 | 62 ft | 13 kts | 256° |
| 2026-05-07 08:51 | 21.66848 | 39.17340 | 62 ft | 4 kts | 177° |
| 2026-05-07 08:51 | 21.66822 | 39.17344 | 62 ft | 8 kts | 159° |
| 2026-05-07 08:51 | 21.66790 | 39.17357 | 62 ft | 0 kts | 160° |